sensor_id;sensor_type;location;lat;lon;timestamp;temperature;humidity
64685;DHT22;51109;47.414;18.954;2023-05-29T00:00:57;16.10;99.90
64685;DHT22;51109;47.414;18.954;2023-05-29T00:03:23;16.00;99.90
64685;DHT22;51109;47.414;18.954;2023-05-29T00:05:49;16.00;99.90
64685;DHT22;51109;47.414;18.954;2023-05-29T00:08:15;15.90;99.90
64685;DHT22;51109;47.414;18.954;2023-05-29T00:10:41;15.80;99.90
64685;DHT22;51109;47.414;18.954;2023-05-29T00:13:07;15.70;99.90
64685;DHT22;51109;47.414;18.954;2023-05-29T00:15:32;15.70;99.90
64685;DHT22;51109;47.414;18.954;2023-05-29T00:17:58;15.80;99.90
64685;DHT22;51109;47.414;18.954;2023-05-29T00:20:24;15.80;99.90
64685;DHT22;51109;47.414;18.954;2023-05-29T00:22:50;15.90;99.90
64685;DHT22;51109;47.414;18.954;2023-05-29T00:25:16;15.90;99.90
64685;DHT22;51109;47.414;18.954;2023-05-29T00:27:42;15.90;99.90
64685;DHT22;51109;47.414;18.954;2023-05-29T00:30:08;15.80;99.90
64685;DHT22;51109;47.414;18.954;2023-05-29T00:32:34;15.80;99.90
64685;DHT22;51109;47.414;18.954;2023-05-29T00:35:00;15.80;99.90
64685;DHT22;51109;47.414;18.954;2023-05-29T00:37:26;16.00;99.90
64685;DHT22;51109;47.414;18.954;2023-05-29T00:39:52;16.10;99.90
64685;DHT22;51109;47.414;18.954;2023-05-29T00:42:18;16.20;99.90
64685;DHT22;51109;47.414;18.954;2023-05-29T00:44:44;16.20;99.90
64685;DHT22;51109;47.414;18.954;2023-05-29T00:47:10;16.10;99.90
64685;DHT22;51109;47.414;18.954;2023-05-29T00:49:36;16.10;99.90
64685;DHT22;51109;47.414;18.954;2023-05-29T00:52:03;15.90;99.90
64685;DHT22;51109;47.414;18.954;2023-05-29T00:54:32;15.80;99.90
64685;DHT22;51109;47.414;18.954;2023-05-29T00:56:59;15.60;99.90
64685;DHT22;51109;47.414;18.954;2023-05-29T00:59:29;15.60;99.90
64685;DHT22;51109;47.414;18.954;2023-05-29T01:01:56;15.60;99.90
64685;DHT22;51109;47.414;18.954;2023-05-29T01:04:23;15.50;99.90
64685;DHT22;51109;47.414;18.954;2023-05-29T01:06:51;15.50;99.90
64685;DHT22;51109;47.414;18.954;2023-05-29T01:09:17;15.50;99.90
64685;DHT22;51109;47.414;18.954;2023-05-29T01:21:10;15.60;99.90
64685;DHT22;51109;47.414;18.954;2023-05-29T01:28:48;15.60;99.90
64685;DHT22;51109;47.414;18.954;2023-05-29T01:31:18;15.60;99.90
64685;DHT22;51109;47.414;18.954;2023-05-29T01:33:55;15.70;99.90
64685;DHT22;51109;47.414;18.954;2023-05-29T01:36:21;15.70;99.90
64685;DHT22;51109;47.414;18.954;2023-05-29T01:38:52;15.80;99.90
64685;DHT22;51109;47.414;18.954;2023-05-29T01:41:20;15.80;99.90
64685;DHT22;51109;47.414;18.954;2023-05-29T01:43:47;15.70;99.90
64685;DHT22;51109;47.414;18.954;2023-05-29T01:46:14;15.60;99.90
64685;DHT22;51109;47.414;18.954;2023-05-29T01:48:45;15.60;99.90
64685;DHT22;51109;47.414;18.954;2023-05-29T01:51:11;15.50;99.90
64685;DHT22;51109;47.414;18.954;2023-05-29T01:53:41;15.50;99.90
64685;DHT22;51109;47.414;18.954;2023-05-29T01:56:08;15.40;99.90
64685;DHT22;51109;47.414;18.954;2023-05-29T01:58:35;15.30;99.90
64685;DHT22;51109;47.414;18.954;2023-05-29T02:01:02;15.20;99.90
64685;DHT22;51109;47.414;18.954;2023-05-29T02:03:29;15.10;99.90
64685;DHT22;51109;47.414;18.954;2023-05-29T02:05:57;14.90;99.90
64685;DHT22;51109;47.414;18.954;2023-05-29T02:08:24;14.90;99.90
64685;DHT22;51109;47.414;18.954;2023-05-29T02:10:50;14.80;99.90
64685;DHT22;51109;47.414;18.954;2023-05-29T02:13:16;14.70;99.90
64685;DHT22;51109;47.414;18.954;2023-05-29T02:15:42;14.70;99.90
64685;DHT22;51109;47.414;18.954;2023-05-29T02:18:10;14.60;99.90
64685;DHT22;51109;47.414;18.954;2023-05-29T02:20:38;14.70;99.90
64685;DHT22;51109;47.414;18.954;2023-05-29T02:23:03;14.70;99.90
64685;DHT22;51109;47.414;18.954;2023-05-29T02:25:29;14.80;99.90
64685;DHT22;51109;47.414;18.954;2023-05-29T02:27:55;14.90;99.90
64685;DHT22;51109;47.414;18.954;2023-05-29T02:30:21;15.10;99.90
64685;DHT22;51109;47.414;18.954;2023-05-29T02:32:47;15.10;99.90
64685;DHT22;51109;47.414;18.954;2023-05-29T02:35:13;15.20;99.90
64685;DHT22;51109;47.414;18.954;2023-05-29T02:37:43;15.20;99.90
64685;DHT22;51109;47.414;18.954;2023-05-29T02:40:09;15.30;99.90
64685;DHT22;51109;47.414;18.954;2023-05-29T02:42:35;15.30;99.90
64685;DHT22;51109;47.414;18.954;2023-05-29T02:45:01;15.30;99.90
64685;DHT22;51109;47.414;18.954;2023-05-29T02:47:27;15.30;99.90
64685;DHT22;51109;47.414;18.954;2023-05-29T02:49:53;15.30;99.90
64685;DHT22;51109;47.414;18.954;2023-05-29T02:52:19;15.30;99.90
64685;DHT22;51109;47.414;18.954;2023-05-29T02:54:45;15.30;99.90
64685;DHT22;51109;47.414;18.954;2023-05-29T02:57:11;15.40;99.90
64685;DHT22;51109;47.414;18.954;2023-05-29T02:59:37;15.40;99.90
64685;DHT22;51109;47.414;18.954;2023-05-29T03:02:03;15.40;99.90
64685;DHT22;51109;47.414;18.954;2023-05-29T03:04:29;15.30;99.90
64685;DHT22;51109;47.414;18.954;2023-05-29T03:06:55;15.20;99.90
64685;DHT22;51109;47.414;18.954;2023-05-29T03:09:21;15.20;99.90
64685;DHT22;51109;47.414;18.954;2023-05-29T03:11:47;15.30;99.90
64685;DHT22;51109;47.414;18.954;2023-05-29T03:14:16;15.30;99.90
64685;DHT22;51109;47.414;18.954;2023-05-29T03:16:45;15.30;99.90
64685;DHT22;51109;47.414;18.954;2023-05-29T03:19:11;15.40;99.90
64685;DHT22;51109;47.414;18.954;2023-05-29T03:21:37;15.40;99.90
64685;DHT22;51109;47.414;18.954;2023-05-29T03:24:03;15.50;99.90
64685;DHT22;51109;47.414;18.954;2023-05-29T03:26:29;15.50;99.90
64685;DHT22;51109;47.414;18.954;2023-05-29T03:28:54;15.50;99.90
64685;DHT22;51109;47.414;18.954;2023-05-29T03:31:21;15.50;99.90
64685;DHT22;51109;47.414;18.954;2023-05-29T03:33:47;15.50;99.90
64685;DHT22;51109;47.414;18.954;2023-05-29T03:36:13;15.50;99.90
64685;DHT22;51109;47.414;18.954;2023-05-29T03:38:39;15.50;99.90
64685;DHT22;51109;47.414;18.954;2023-05-29T03:41:05;15.50;99.90
64685;DHT22;51109;47.414;18.954;2023-05-29T03:43:31;15.60;99.90
64685;DHT22;51109;47.414;18.954;2023-05-29T03:45:57;15.60;99.90
64685;DHT22;51109;47.414;18.954;2023-05-29T03:48:23;15.60;99.90
64685;DHT22;51109;47.414;18.954;2023-05-29T03:50:49;15.60;99.90
64685;DHT22;51109;47.414;18.954;2023-05-29T03:53:15;15.70;99.90
64685;DHT22;51109;47.414;18.954;2023-05-29T03:55:40;15.80;99.90
64685;DHT22;51109;47.414;18.954;2023-05-29T03:58:07;15.80;99.90
64685;DHT22;51109;47.414;18.954;2023-05-29T04:00:33;15.90;99.90
64685;DHT22;51109;47.414;18.954;2023-05-29T04:02:59;16.00;99.90
64685;DHT22;51109;47.414;18.954;2023-05-29T04:05:24;16.10;99.90
64685;DHT22;51109;47.414;18.954;2023-05-29T04:07:51;16.20;99.90
64685;DHT22;51109;47.414;18.954;2023-05-29T04:10:17;16.30;99.90
64685;DHT22;51109;47.414;18.954;2023-05-29T04:12:43;16.40;99.90
64685;DHT22;51109;47.414;18.954;2023-05-29T04:15:09;16.40;99.90
64685;DHT22;51109;47.414;18.954;2023-05-29T04:17:35;16.50;99.90
64685;DHT22;51109;47.414;18.954;2023-05-29T04:20:01;16.60;99.90
64685;DHT22;51109;47.414;18.954;2023-05-29T04:22:37;16.60;99.90
64685;DHT22;51109;47.414;18.954;2023-05-29T04:25:06;16.60;99.90
64685;DHT22;51109;47.414;18.954;2023-05-29T04:27:32;16.70;99.90
64685;DHT22;51109;47.414;18.954;2023-05-29T04:30:06;16.90;99.90
64685;DHT22;51109;47.414;18.954;2023-05-29T04:32:32;16.90;99.90
64685;DHT22;51109;47.414;18.954;2023-05-29T04:35:01;17.00;99.90
64685;DHT22;51109;47.414;18.954;2023-05-29T04:37:31;17.00;99.90
64685;DHT22;51109;47.414;18.954;2023-05-29T04:40:07;17.10;99.90
64685;DHT22;51109;47.414;18.954;2023-05-29T04:42:37;17.10;99.90
64685;DHT22;51109;47.414;18.954;2023-05-29T04:45:03;17.20;99.90
64685;DHT22;51109;47.414;18.954;2023-05-29T04:47:32;17.40;99.90
64685;DHT22;51109;47.414;18.954;2023-05-29T04:50:01;17.50;99.90
64685;DHT22;51109;47.414;18.954;2023-05-29T04:52:27;17.60;99.90
64685;DHT22;51109;47.414;18.954;2023-05-29T04:54:56;17.60;99.90
64685;DHT22;51109;47.414;18.954;2023-05-29T04:57:22;17.70;99.90
64685;DHT22;51109;47.414;18.954;2023-05-29T04:59:48;17.80;99.90
64685;DHT22;51109;47.414;18.954;2023-05-29T05:02:14;17.90;99.90
64685;DHT22;51109;47.414;18.954;2023-05-29T05:04:40;18.00;99.90
64685;DHT22;51109;47.414;18.954;2023-05-29T05:07:06;18.10;99.90
64685;DHT22;51109;47.414;18.954;2023-05-29T05:09:32;18.20;99.90
64685;DHT22;51109;47.414;18.954;2023-05-29T05:11:57;18.30;99.90
64685;DHT22;51109;47.414;18.954;2023-05-29T05:14:24;18.50;99.90
64685;DHT22;51109;47.414;18.954;2023-05-29T05:16:49;18.80;99.90
64685;DHT22;51109;47.414;18.954;2023-05-29T05:19:16;18.90;99.90
64685;DHT22;51109;47.414;18.954;2023-05-29T05:21:42;18.90;99.90
64685;DHT22;51109;47.414;18.954;2023-05-29T05:24:08;18.90;99.90
64685;DHT22;51109;47.414;18.954;2023-05-29T05:26:34;19.00;99.90
64685;DHT22;51109;47.414;18.954;2023-05-29T05:29:00;18.90;99.90
64685;DHT22;51109;47.414;18.954;2023-05-29T05:31:26;19.00;99.90
64685;DHT22;51109;47.414;18.954;2023-05-29T05:33:52;19.10;99.90
64685;DHT22;51109;47.414;18.954;2023-05-29T05:36:18;19.20;99.90
64685;DHT22;51109;47.414;18.954;2023-05-29T05:38:44;19.20;99.90
64685;DHT22;51109;47.414;18.954;2023-05-29T05:41:10;19.10;99.90
64685;DHT22;51109;47.414;18.954;2023-05-29T05:43:36;19.10;99.90
64685;DHT22;51109;47.414;18.954;2023-05-29T05:46:02;19.40;99.90
64685;DHT22;51109;47.414;18.954;2023-05-29T05:48:27;19.60;99.90
64685;DHT22;51109;47.414;18.954;2023-05-29T05:50:53;19.80;99.90
64685;DHT22;51109;47.414;18.954;2023-05-29T05:53:19;19.80;99.90
64685;DHT22;51109;47.414;18.954;2023-05-29T05:55:46;19.90;99.90
64685;DHT22;51109;47.414;18.954;2023-05-29T05:58:12;20.10;99.90
64685;DHT22;51109;47.414;18.954;2023-05-29T06:00:39;20.10;99.90
64685;DHT22;51109;47.414;18.954;2023-05-29T06:03:05;20.20;99.90
64685;DHT22;51109;47.414;18.954;2023-05-29T06:05:31;20.30;99.90
64685;DHT22;51109;47.414;18.954;2023-05-29T06:07:57;20.40;99.90
64685;DHT22;51109;47.414;18.954;2023-05-29T06:10:23;20.40;99.90
64685;DHT22;51109;47.414;18.954;2023-05-29T06:12:49;20.50;99.90
64685;DHT22;51109;47.414;18.954;2023-05-29T06:15:15;20.80;99.90
64685;DHT22;51109;47.414;18.954;2023-05-29T06:17:41;20.70;99.90
64685;DHT22;51109;47.414;18.954;2023-05-29T06:20:07;20.80;99.90
64685;DHT22;51109;47.414;18.954;2023-05-29T06:22:37;21.00;99.90
64685;DHT22;51109;47.414;18.954;2023-05-29T06:25:03;21.00;99.90
64685;DHT22;51109;47.414;18.954;2023-05-29T06:27:29;21.20;99.90
64685;DHT22;51109;47.414;18.954;2023-05-29T06:29:55;21.20;99.90
64685;DHT22;51109;47.414;18.954;2023-05-29T06:32:21;21.30;99.90
64685;DHT22;51109;47.414;18.954;2023-05-29T06:34:47;21.50;99.90
64685;DHT22;51109;47.414;18.954;2023-05-29T06:37:13;21.50;99.90
64685;DHT22;51109;47.414;18.954;2023-05-29T06:39:39;21.50;99.90
64685;DHT22;51109;47.414;18.954;2023-05-29T06:42:08;21.50;99.90
64685;DHT22;51109;47.414;18.954;2023-05-29T06:44:34;21.80;99.90
64685;DHT22;51109;47.414;18.954;2023-05-29T06:47:00;22.00;99.90
64685;DHT22;51109;47.414;18.954;2023-05-29T06:49:25;22.20;99.90
64685;DHT22;51109;47.414;18.954;2023-05-29T06:51:51;22.30;99.90
64685;DHT22;51109;47.414;18.954;2023-05-29T06:54:17;22.40;99.90
64685;DHT22;51109;47.414;18.954;2023-05-29T06:56:43;22.40;99.90
64685;DHT22;51109;47.414;18.954;2023-05-29T06:59:09;22.30;99.90
64685;DHT22;51109;47.414;18.954;2023-05-29T07:01:35;22.30;99.90
64685;DHT22;51109;47.414;18.954;2023-05-29T07:04:01;22.30;99.90
64685;DHT22;51109;47.414;18.954;2023-05-29T07:06:27;22.60;99.90
64685;DHT22;51109;47.414;18.954;2023-05-29T07:08:52;22.70;99.90
64685;DHT22;51109;47.414;18.954;2023-05-29T07:11:18;22.70;99.90
64685;DHT22;51109;47.414;18.954;2023-05-29T07:13:44;22.60;99.90
64685;DHT22;51109;47.414;18.954;2023-05-29T07:16:10;22.70;99.90
64685;DHT22;51109;47.414;18.954;2023-05-29T07:18:36;22.60;99.90
64685;DHT22;51109;47.414;18.954;2023-05-29T07:21:02;22.50;99.90
64685;DHT22;51109;47.414;18.954;2023-05-29T07:23:28;22.20;99.90
64685;DHT22;51109;47.414;18.954;2023-05-29T07:25:53;22.40;99.90
64685;DHT22;51109;47.414;18.954;2023-05-29T07:28:19;22.60;99.90
64685;DHT22;51109;47.414;18.954;2023-05-29T07:30:45;22.60;99.90
64685;DHT22;51109;47.414;18.954;2023-05-29T07:33:11;22.50;99.90
64685;DHT22;51109;47.414;18.954;2023-05-29T07:35:37;22.30;99.90
64685;DHT22;51109;47.414;18.954;2023-05-29T07:38:03;22.20;99.90
64685;DHT22;51109;47.414;18.954;2023-05-29T07:40:28;22.20;99.90
64685;DHT22;51109;47.414;18.954;2023-05-29T07:42:54;22.20;99.90
64685;DHT22;51109;47.414;18.954;2023-05-29T07:45:20;22.10;99.90
64685;DHT22;51109;47.414;18.954;2023-05-29T07:47:46;22.10;99.90
64685;DHT22;51109;47.414;18.954;2023-05-29T07:50:14;22.00;99.90
64685;DHT22;51109;47.414;18.954;2023-05-29T07:52:40;22.00;99.90
64685;DHT22;51109;47.414;18.954;2023-05-29T07:55:07;22.00;99.90
64685;DHT22;51109;47.414;18.954;2023-05-29T07:57:33;22.10;99.90
64685;DHT22;51109;47.414;18.954;2023-05-29T07:59:59;22.30;99.90
64685;DHT22;51109;47.414;18.954;2023-05-29T08:02:25;22.20;99.90
64685;DHT22;51109;47.414;18.954;2023-05-29T08:04:51;22.30;99.90
64685;DHT22;51109;47.414;18.954;2023-05-29T08:07:17;22.30;99.90
64685;DHT22;51109;47.414;18.954;2023-05-29T08:09:43;22.60;99.90
64685;DHT22;51109;47.414;18.954;2023-05-29T08:12:09;22.50;99.90
64685;DHT22;51109;47.414;18.954;2023-05-29T08:14:35;22.60;99.90
64685;DHT22;51109;47.414;18.954;2023-05-29T08:17:01;22.60;99.90
64685;DHT22;51109;47.414;18.954;2023-05-29T08:19:27;22.50;99.90
64685;DHT22;51109;47.414;18.954;2023-05-29T08:21:52;22.50;99.90
64685;DHT22;51109;47.414;18.954;2023-05-29T08:24:18;22.60;99.90
64685;DHT22;51109;47.414;18.954;2023-05-29T08:26:45;22.50;99.90
64685;DHT22;51109;47.414;18.954;2023-05-29T08:29:11;22.40;99.90
64685;DHT22;51109;47.414;18.954;2023-05-29T08:31:37;22.20;99.90
64685;DHT22;51109;47.414;18.954;2023-05-29T08:34:03;22.30;99.90
64685;DHT22;51109;47.414;18.954;2023-05-29T08:36:29;22.30;99.90
64685;DHT22;51109;47.414;18.954;2023-05-29T08:38:55;22.50;99.90
64685;DHT22;51109;47.414;18.954;2023-05-29T08:44:13;22.90;99.90
64685;DHT22;51109;47.414;18.954;2023-05-29T08:46:40;23.00;99.90
64685;DHT22;51109;47.414;18.954;2023-05-29T08:49:07;23.20;99.90
64685;DHT22;51109;47.414;18.954;2023-05-29T08:51:37;23.30;99.90
64685;DHT22;51109;47.414;18.954;2023-05-29T08:54:04;23.60;99.90
64685;DHT22;51109;47.414;18.954;2023-05-29T08:56:30;23.60;99.90
64685;DHT22;51109;47.414;18.954;2023-05-29T08:58:57;23.50;99.90
64685;DHT22;51109;47.414;18.954;2023-05-29T09:01:23;23.50;99.90
64685;DHT22;51109;47.414;18.954;2023-05-29T09:03:51;23.60;99.90
64685;DHT22;51109;47.414;18.954;2023-05-29T09:06:17;23.50;99.90
64685;DHT22;51109;47.414;18.954;2023-05-29T09:08:44;23.20;99.90
64685;DHT22;51109;47.414;18.954;2023-05-29T09:11:10;23.00;99.90
64685;DHT22;51109;47.414;18.954;2023-05-29T09:13:35;23.20;99.90
64685;DHT22;51109;47.414;18.954;2023-05-29T09:16:01;23.30;99.90
64685;DHT22;51109;47.414;18.954;2023-05-29T09:18:30;23.30;99.90
64685;DHT22;51109;47.414;18.954;2023-05-29T09:20:57;23.30;99.90
64685;DHT22;51109;47.414;18.954;2023-05-29T09:23:24;23.20;99.90
64685;DHT22;51109;47.414;18.954;2023-05-29T09:25:54;22.90;99.90
64685;DHT22;51109;47.414;18.954;2023-05-29T09:28:23;22.80;99.90
64685;DHT22;51109;47.414;18.954;2023-05-29T09:30:50;22.90;99.90
64685;DHT22;51109;47.414;18.954;2023-05-29T09:33:17;22.80;99.90
64685;DHT22;51109;47.414;18.954;2023-05-29T09:35:44;22.80;99.90
64685;DHT22;51109;47.414;18.954;2023-05-29T09:38:12;22.60;99.90
64685;DHT22;51109;47.414;18.954;2023-05-29T09:40:39;22.50;99.90
64685;DHT22;51109;47.414;18.954;2023-05-29T09:45:42;22.50;99.90
64685;DHT22;51109;47.414;18.954;2023-05-29T09:48:13;22.60;99.90
64685;DHT22;51109;47.414;18.954;2023-05-29T09:50:39;22.70;99.90
64685;DHT22;51109;47.414;18.954;2023-05-29T09:53:22;22.70;99.90
64685;DHT22;51109;47.414;18.954;2023-05-29T09:55:54;22.70;99.90
64685;DHT22;51109;47.414;18.954;2023-05-29T09:58:24;22.80;99.90
64685;DHT22;51109;47.414;18.954;2023-05-29T10:00:52;22.80;99.90
64685;DHT22;51109;47.414;18.954;2023-05-29T10:03:18;22.80;99.90
64685;DHT22;51109;47.414;18.954;2023-05-29T10:05:49;22.80;99.90
64685;DHT22;51109;47.414;18.954;2023-05-29T10:08:18;22.90;99.90
64685;DHT22;51109;47.414;18.954;2023-05-29T10:10:47;23.10;99.90
64685;DHT22;51109;47.414;18.954;2023-05-29T10:13:14;22.90;99.90
64685;DHT22;51109;47.414;18.954;2023-05-29T10:15:45;22.70;99.90
64685;DHT22;51109;47.414;18.954;2023-05-29T10:18:13;22.80;99.90
64685;DHT22;51109;47.414;18.954;2023-05-29T10:20:44;22.70;99.90
64685;DHT22;51109;47.414;18.954;2023-05-29T10:23:11;22.50;99.90
64685;DHT22;51109;47.414;18.954;2023-05-29T10:25:39;22.40;99.90
64685;DHT22;51109;47.414;18.954;2023-05-29T10:28:06;22.50;99.90
64685;DHT22;51109;47.414;18.954;2023-05-29T10:31:08;22.40;99.90
64685;DHT22;51109;47.414;18.954;2023-05-29T10:34:07;22.20;99.90
64685;DHT22;51109;47.414;18.954;2023-05-29T10:36:40;22.20;99.90
64685;DHT22;51109;47.414;18.954;2023-05-29T10:39:08;22.20;99.90
64685;DHT22;51109;47.414;18.954;2023-05-29T10:41:35;22.00;99.90
64685;DHT22;51109;47.414;18.954;2023-05-29T10:49:25;21.70;99.90
64685;DHT22;51109;47.414;18.954;2023-05-29T10:51:52;21.80;99.90
64685;DHT22;51109;47.414;18.954;2023-05-29T10:54:25;21.70;99.90
64685;DHT22;51109;47.414;18.954;2023-05-29T10:57:00;21.60;99.90
64685;DHT22;51109;47.414;18.954;2023-05-29T10:59:26;21.40;99.90
64685;DHT22;51109;47.414;18.954;2023-05-29T11:01:54;21.40;99.90
64685;DHT22;51109;47.414;18.954;2023-05-29T11:06:47;21.50;99.90
64685;DHT22;51109;47.414;18.954;2023-05-29T11:09:29;21.50;99.90
64685;DHT22;51109;47.414;18.954;2023-05-29T11:12:22;21.60;99.90
64685;DHT22;51109;47.414;18.954;2023-05-29T11:15:05;21.60;99.90
64685;DHT22;51109;47.414;18.954;2023-05-29T11:20:06;21.70;99.90
64685;DHT22;51109;47.414;18.954;2023-05-29T11:25:21;22.00;99.90
64685;DHT22;51109;47.414;18.954;2023-05-29T11:27:47;22.00;99.90
64685;DHT22;51109;47.414;18.954;2023-05-29T11:30:13;22.00;99.90
64685;DHT22;51109;47.414;18.954;2023-05-29T11:32:40;22.00;99.90
64685;DHT22;51109;47.414;18.954;2023-05-29T11:35:08;22.10;99.90
64685;DHT22;51109;47.414;18.954;2023-05-29T11:37:35;22.10;99.90
64685;DHT22;51109;47.414;18.954;2023-05-29T11:40:06;22.10;99.90
64685;DHT22;51109;47.414;18.954;2023-05-29T11:42:45;22.10;99.90
64685;DHT22;51109;47.414;18.954;2023-05-29T11:45:15;22.00;99.90
64685;DHT22;51109;47.414;18.954;2023-05-29T11:47:55;22.10;99.90
64685;DHT22;51109;47.414;18.954;2023-05-29T11:50:25;22.30;99.90
64685;DHT22;51109;47.414;18.954;2023-05-29T11:52:52;22.60;99.90
64685;DHT22;51109;47.414;18.954;2023-05-29T11:55:19;22.90;99.90
64685;DHT22;51109;47.414;18.954;2023-05-29T11:57:59;23.10;99.90
64685;DHT22;51109;47.414;18.954;2023-05-29T12:00:28;23.20;99.90
64685;DHT22;51109;47.414;18.954;2023-05-29T12:02:57;23.50;99.90
64685;DHT22;51109;47.414;18.954;2023-05-29T12:05:23;23.60;99.90
64685;DHT22;51109;47.414;18.954;2023-05-29T12:07:54;23.80;99.90
64685;DHT22;51109;47.414;18.954;2023-05-29T12:10:24;24.00;99.90
64685;DHT22;51109;47.414;18.954;2023-05-29T12:12:54;24.30;99.90
64685;DHT22;51109;47.414;18.954;2023-05-29T12:15:21;24.70;99.90
64685;DHT22;51109;47.414;18.954;2023-05-29T12:17:49;24.80;99.90
64685;DHT22;51109;47.414;18.954;2023-05-29T12:20:18;24.90;99.90
64685;DHT22;51109;47.414;18.954;2023-05-29T12:22:45;25.20;99.90
64685;DHT22;51109;47.414;18.954;2023-05-29T12:25:16;25.10;99.90
64685;DHT22;51109;47.414;18.954;2023-05-29T12:27:44;25.20;99.90
64685;DHT22;51109;47.414;18.954;2023-05-29T12:32:46;25.50;99.90
64685;DHT22;51109;47.414;18.954;2023-05-29T12:35:17;25.80;99.90
64685;DHT22;51109;47.414;18.954;2023-05-29T12:37:48;25.60;99.90
64685;DHT22;51109;47.414;18.954;2023-05-29T12:40:20;25.70;99.90
64685;DHT22;51109;47.414;18.954;2023-05-29T12:42:47;25.50;99.90
64685;DHT22;51109;47.414;18.954;2023-05-29T12:45:13;25.60;99.90
64685;DHT22;51109;47.414;18.954;2023-05-29T12:50:26;25.60;99.90
64685;DHT22;51109;47.414;18.954;2023-05-29T12:55:25;25.00;99.90
64685;DHT22;51109;47.414;18.954;2023-05-29T12:58:00;24.80;99.90
64685;DHT22;51109;47.414;18.954;2023-05-29T13:00:26;24.60;99.90
64685;DHT22;51109;47.414;18.954;2023-05-29T13:02:52;24.20;99.90
64685;DHT22;51109;47.414;18.954;2023-05-29T13:05:19;24.20;99.90
64685;DHT22;51109;47.414;18.954;2023-05-29T13:07:46;24.20;99.90
64685;DHT22;51109;47.414;18.954;2023-05-29T13:10:13;24.20;99.90
64685;DHT22;51109;47.414;18.954;2023-05-29T13:12:38;24.40;99.90
64685;DHT22;51109;47.414;18.954;2023-05-29T13:15:05;24.40;99.90
64685;DHT22;51109;47.414;18.954;2023-05-29T13:17:31;24.50;99.90
64685;DHT22;51109;47.414;18.954;2023-05-29T13:19:57;24.60;99.90
64685;DHT22;51109;47.414;18.954;2023-05-29T13:22:22;24.40;99.90
64685;DHT22;51109;47.414;18.954;2023-05-29T13:24:48;24.50;99.90
64685;DHT22;51109;47.414;18.954;2023-05-29T13:27:14;24.50;99.90
64685;DHT22;51109;47.414;18.954;2023-05-29T13:29:44;24.50;99.90
64685;DHT22;51109;47.414;18.954;2023-05-29T13:32:10;24.30;99.90
64685;DHT22;51109;47.414;18.954;2023-05-29T13:34:36;24.40;99.90
64685;DHT22;51109;47.414;18.954;2023-05-29T13:37:02;24.40;99.90
64685;DHT22;51109;47.414;18.954;2023-05-29T13:39:28;24.40;99.90
64685;DHT22;51109;47.414;18.954;2023-05-29T13:41:54;24.40;99.90
64685;DHT22;51109;47.414;18.954;2023-05-29T13:44:20;24.50;99.90
64685;DHT22;51109;47.414;18.954;2023-05-29T13:46:46;24.50;99.90
64685;DHT22;51109;47.414;18.954;2023-05-29T13:49:12;24.80;99.90
64685;DHT22;51109;47.414;18.954;2023-05-29T13:51:38;24.80;99.90
64685;DHT22;51109;47.414;18.954;2023-05-29T13:54:04;24.50;99.90
64685;DHT22;51109;47.414;18.954;2023-05-29T13:56:30;24.50;99.90
64685;DHT22;51109;47.414;18.954;2023-05-29T13:58:57;24.30;99.90
64685;DHT22;51109;47.414;18.954;2023-05-29T14:01:25;24.10;99.90
64685;DHT22;51109;47.414;18.954;2023-05-29T14:03:51;24.00;99.90
64685;DHT22;51109;47.414;18.954;2023-05-29T14:06:16;24.00;99.90
64685;DHT22;51109;47.414;18.954;2023-05-29T14:08:42;24.10;99.90
64685;DHT22;51109;47.414;18.954;2023-05-29T14:11:08;24.20;99.90
64685;DHT22;51109;47.414;18.954;2023-05-29T14:13:34;24.30;99.90
64685;DHT22;51109;47.414;18.954;2023-05-29T14:16:00;24.30;99.90
64685;DHT22;51109;47.414;18.954;2023-05-29T14:18:26;24.30;99.90
64685;DHT22;51109;47.414;18.954;2023-05-29T14:20:52;24.50;99.90
64685;DHT22;51109;47.414;18.954;2023-05-29T14:23:18;24.60;99.90
64685;DHT22;51109;47.414;18.954;2023-05-29T14:25:44;24.50;99.90
64685;DHT22;51109;47.414;18.954;2023-05-29T14:28:10;24.30;99.90
64685;DHT22;51109;47.414;18.954;2023-05-29T14:30:36;24.10;99.90
64685;DHT22;51109;47.414;18.954;2023-05-29T14:33:03;24.10;99.90
64685;DHT22;51109;47.414;18.954;2023-05-29T14:35:29;24.10;99.90
64685;DHT22;51109;47.414;18.954;2023-05-29T14:37:57;24.00;99.90
64685;DHT22;51109;47.414;18.954;2023-05-29T14:40:24;24.30;99.90
64685;DHT22;51109;47.414;18.954;2023-05-29T14:42:49;24.30;99.90
64685;DHT22;51109;47.414;18.954;2023-05-29T14:45:16;24.30;99.90
64685;DHT22;51109;47.414;18.954;2023-05-29T14:47:42;24.60;99.90
64685;DHT22;51109;47.414;18.954;2023-05-29T14:50:09;24.80;99.90
64685;DHT22;51109;47.414;18.954;2023-05-29T14:52:35;24.90;99.90
64685;DHT22;51109;47.414;18.954;2023-05-29T14:55:02;24.90;99.90
64685;DHT22;51109;47.414;18.954;2023-05-29T14:57:28;25.30;99.90
64685;DHT22;51109;47.414;18.954;2023-05-29T14:59:55;25.50;99.90
64685;DHT22;51109;47.414;18.954;2023-05-29T15:02:21;25.80;99.90
64685;DHT22;51109;47.414;18.954;2023-05-29T15:04:47;25.90;99.90
64685;DHT22;51109;47.414;18.954;2023-05-29T15:07:13;26.10;99.90
64685;DHT22;51109;47.414;18.954;2023-05-29T15:09:39;26.10;99.90
64685;DHT22;51109;47.414;18.954;2023-05-29T15:12:05;26.20;99.90
64685;DHT22;51109;47.414;18.954;2023-05-29T15:14:32;26.20;99.90
64685;DHT22;51109;47.414;18.954;2023-05-29T15:16:58;26.30;99.90
64685;DHT22;51109;47.414;18.954;2023-05-29T15:19:25;26.30;99.90
64685;DHT22;51109;47.414;18.954;2023-05-29T15:21:51;26.40;99.90
64685;DHT22;51109;47.414;18.954;2023-05-29T15:24:17;26.50;99.90
64685;DHT22;51109;47.414;18.954;2023-05-29T15:26:43;26.10;99.90
64685;DHT22;51109;47.414;18.954;2023-05-29T15:29:09;25.70;99.90
64685;DHT22;51109;47.414;18.954;2023-05-29T15:31:36;25.90;99.90
64685;DHT22;51109;47.414;18.954;2023-05-29T15:34:02;26.40;99.90
64685;DHT22;51109;47.414;18.954;2023-05-29T15:36:28;26.50;99.90
64685;DHT22;51109;47.414;18.954;2023-05-29T15:38:55;25.90;99.90
64685;DHT22;51109;47.414;18.954;2023-05-29T15:41:21;25.70;99.90
64685;DHT22;51109;47.414;18.954;2023-05-29T15:43:47;25.80;99.90
64685;DHT22;51109;47.414;18.954;2023-05-29T15:46:13;25.70;99.90
64685;DHT22;51109;47.414;18.954;2023-05-29T15:48:39;25.40;99.90
64685;DHT22;51109;47.414;18.954;2023-05-29T15:51:05;25.60;99.90
64685;DHT22;51109;47.414;18.954;2023-05-29T15:53:31;26.40;99.90
64685;DHT22;51109;47.414;18.954;2023-05-29T15:55:57;26.80;99.90